createdAt,value
2023-04-18T00:01:58.578Z,12.70
2023-04-18T00:04:26.166Z,12.85
2023-04-18T00:06:53.676Z,13.85
2023-04-18T00:09:20.806Z,11.20
2023-04-18T00:11:47.738Z,12.88
2023-04-18T00:14:15.131Z,12.48
2023-04-18T00:16:42.501Z,11.98
2023-04-18T00:19:13.145Z,12.90
2023-04-18T00:21:44.916Z,12.43
2023-04-18T00:24:12.449Z,12.48
2023-04-18T00:26:39.526Z,12.27
2023-04-18T00:29:06.513Z,11.93
2023-04-18T00:31:35.893Z,13.13
2023-04-18T00:34:02.864Z,11.95
2023-04-18T00:36:30.100Z,11.88
2023-04-18T00:38:57.116Z,11.38
2023-04-18T00:41:27.666Z,11.88
2023-04-18T00:43:55.115Z,11.70
2023-04-18T00:46:22.183Z,11.63
2023-04-18T00:48:56.336Z,11.98
2023-04-18T00:51:28.530Z,11.52
2023-04-18T00:53:55.684Z,11.85
2023-04-18T00:56:24.037Z,11.10
2023-04-18T00:58:51.736Z,11.68
2023-04-18T01:01:18.848Z,11.52
2023-04-18T01:03:46.031Z,12.38
2023-04-18T01:06:15.540Z,12.35
2023-04-18T01:08:43.375Z,12.10
2023-04-18T01:11:10.655Z,12.27
2023-04-18T01:13:39.485Z,12.38
2023-04-18T01:16:06.789Z,11.65
2023-04-18T01:18:35.195Z,11.63
2023-04-18T01:21:02.386Z,12.80
2023-04-18T01:23:30.614Z,11.05
2023-04-18T01:25:57.764Z,11.63
2023-04-18T01:28:27.850Z,12.57
2023-04-18T01:30:56.389Z,11.82
2023-04-18T01:33:23.839Z,12.38
2023-04-18T01:35:51.111Z,11.82
2023-04-18T01:38:18.265Z,11.90
2023-04-18T01:40:45.191Z,11.77
2023-04-18T01:43:12.423Z,12.57
2023-04-18T01:45:39.731Z,11.68
2023-04-18T01:48:09.206Z,11.80
2023-04-18T01:50:43.259Z,11.18
2023-04-18T01:53:11.177Z,10.57
2023-04-18T01:55:38.143Z,12.00
2023-04-18T01:58:05.419Z,12.38
2023-04-18T02:00:32.587Z,12.02
2023-04-18T02:03:00.133Z,11.43
2023-04-18T02:05:27.439Z,12.40
2023-04-18T02:07:54.529Z,10.85
2023-04-18T02:10:21.688Z,12.20
2023-04-18T02:12:49.184Z,11.40
2023-04-18T02:15:16.461Z,12.45
2023-04-18T02:17:43.603Z,11.98
2023-04-18T02:20:11.371Z,12.32
2023-04-18T02:22:39.674Z,13.07
2023-04-18T02:25:07.091Z,12.73
2023-04-18T02:27:34.352Z,12.65
2023-04-18T02:30:02.751Z,13.50
2023-04-18T02:32:34.106Z,14.82
2023-04-18T02:35:01.169Z,13.65
2023-04-18T02:37:28.223Z,13.85
2023-04-18T02:39:55.779Z,13.40
2023-04-18T02:42:22.880Z,13.50
2023-04-18T02:44:50.050Z,13.60
2023-04-18T02:47:17.174Z,14.70
2023-04-18T02:49:46.505Z,14.88
2023-04-18T02:52:14.711Z,14.50
2023-04-18T02:54:41.782Z,13.80
2023-04-18T02:57:13.873Z,13.63
2023-04-18T02:59:58.054Z,13.38
2023-04-18T03:03:03.468Z,12.98
2023-04-18T03:05:39.690Z,13.55
2023-04-18T03:08:07.297Z,13.50
2023-04-18T03:10:36.277Z,12.52
2023-04-18T03:13:03.720Z,12.40
2023-04-18T03:15:33.655Z,12.52
2023-04-18T03:18:01.800Z,13.23
2023-04-18T03:20:32.694Z,12.70
2023-04-18T03:22:59.661Z,12.30
2023-04-18T03:25:29.684Z,12.70
2023-04-18T03:27:57.882Z,13.05
2023-04-18T03:30:26.156Z,12.90
2023-04-18T03:32:56.254Z,13.02
2023-04-18T03:35:23.598Z,12.40
2023-04-18T03:37:51.181Z,11.85
2023-04-18T03:40:24.116Z,13.10
2023-04-18T03:42:54.635Z,12.65
2023-04-18T03:45:22.409Z,13.13
2023-04-18T03:47:50.508Z,14.15
2023-04-18T03:50:18.080Z,13.15
2023-04-18T03:52:47.124Z,13.43
2023-04-18T03:55:16.353Z,13.50
2023-04-18T03:57:43.232Z,14.15
2023-04-18T04:00:15.367Z,13.57
2023-04-18T04:02:55.641Z,13.02
2023-04-18T04:05:22.993Z,14.45
2023-04-18T04:07:51.135Z,13.50
2023-04-18T04:10:18.679Z,13.13
2023-04-18T04:12:46.978Z,13.23
2023-04-18T04:15:14.065Z,13.65
2023-04-18T04:17:47.602Z,13.98
2023-04-18T04:20:17.143Z,13.82
2023-04-18T04:22:44.373Z,13.55
2023-04-18T04:25:13.894Z,14.68
2023-04-18T04:27:43.288Z,13.73
2023-04-18T04:30:13.484Z,12.77
2023-04-18T04:32:40.882Z,11.18
2023-04-18T04:35:08.859Z,11.80
2023-04-18T04:37:35.951Z,11.20
2023-04-18T04:40:23.977Z,11.63
2023-04-18T04:43:00.223Z,10.05
2023-04-18T04:45:34.696Z,12.00
2023-04-18T04:48:01.857Z,11.35
2023-04-18T04:50:29.142Z,11.70
2023-04-18T04:52:56.275Z,11.43
2023-04-18T04:55:24.648Z,11.77
2023-04-18T04:57:51.912Z,11.55
2023-04-18T05:00:52.681Z,13.98
2023-04-18T05:03:21.193Z,13.52
2023-04-18T05:05:49.104Z,11.68
2023-04-18T05:08:16.158Z,12.80
2023-04-18T05:10:43.541Z,12.20
2023-04-18T05:13:10.616Z,12.70
2023-04-18T05:15:39.602Z,11.88
2023-04-18T05:18:06.832Z,12.93
2023-04-18T05:20:33.843Z,13.18
2023-04-18T05:23:01.089Z,13.73
2023-04-18T05:25:29.869Z,12.40
2023-04-18T05:27:56.927Z,13.30
2023-04-18T05:30:23.920Z,13.05
2023-04-18T05:32:51.072Z,12.13
2023-04-18T05:35:18.702Z,12.85
2023-04-18T05:37:45.776Z,13.10
2023-04-18T05:40:13.381Z,12.98
2023-04-18T05:42:40.545Z,13.30
2023-04-18T05:45:08.184Z,13.73
2023-04-18T05:47:35.748Z,13.07
2023-04-18T05:50:03.060Z,13.18
2023-04-18T05:52:32.571Z,14.35
2023-04-18T05:54:59.580Z,13.32
2023-04-18T05:57:26.448Z,13.57
2023-04-18T05:59:53.563Z,14.52
2023-04-18T06:02:21.334Z,14.48
2023-04-18T06:04:49.196Z,14.32
2023-04-18T06:07:16.470Z,13.65
2023-04-18T06:09:43.678Z,13.43
2023-04-18T06:12:10.900Z,14.25
2023-04-18T06:14:37.895Z,14.93
2023-04-18T06:17:07.356Z,14.40
2023-04-18T06:19:34.368Z,14.15
2023-04-18T06:22:01.660Z,13.60
2023-04-18T06:24:30.175Z,13.52
2023-04-18T06:26:58.531Z,14.02
2023-04-18T06:29:30.351Z,13.63
2023-04-18T06:31:57.986Z,15.25
2023-04-18T06:34:25.127Z,14.43
2023-04-18T06:36:52.644Z,14.43
2023-04-18T06:39:19.601Z,13.60
2023-04-18T06:41:46.498Z,14.60
2023-04-18T06:44:21.103Z,13.25
2023-04-18T06:46:49.201Z,14.13
2023-04-18T06:49:16.211Z,13.60
2023-04-18T06:51:43.251Z,13.25
2023-04-18T06:54:10.249Z,14.55
2023-04-18T06:56:37.298Z,13.23
2023-04-18T06:59:04.543Z,13.52
2023-04-18T07:01:33.656Z,12.98
2023-04-18T07:04:00.956Z,11.63
2023-04-18T07:06:28.324Z,11.60
2023-04-18T07:09:00.164Z,9.73
2023-04-18T07:11:28.535Z,10.70
2023-04-18T07:13:55.679Z,10.65
2023-04-18T07:16:22.999Z,10.23
2023-04-18T07:18:50.116Z,10.75
2023-04-18T07:21:17.539Z,9.10
2023-04-18T07:23:44.558Z,9.80
2023-04-18T07:26:13.414Z,9.32
2023-04-18T07:28:40.458Z,9.60
2023-04-18T07:31:11.497Z,9.77
2023-04-18T07:33:38.870Z,9.40
2023-04-18T07:36:06.391Z,9.93
2023-04-18T07:38:35.534Z,11.32
2023-04-18T07:41:03.340Z,11.88
2023-04-18T07:43:30.727Z,11.68
2023-04-18T07:45:57.841Z,12.15
2023-04-18T07:48:27.875Z,11.00
2023-04-18T07:50:54.890Z,10.40
2023-04-18T07:53:22.325Z,10.70
2023-04-18T07:55:49.977Z,10.98
2023-04-18T07:58:17.455Z,10.38
2023-04-18T08:00:45.113Z,11.32
2023-04-18T08:03:13.247Z,11.85
2023-04-18T08:05:42.866Z,11.50
2023-04-18T08:08:12.071Z,11.75
2023-04-18T08:10:39.559Z,10.50
2023-04-18T08:13:06.922Z,11.32
2023-04-18T08:15:34.326Z,11.00
2023-04-18T08:18:01.766Z,11.23
2023-04-18T08:20:29.097Z,11.73
2023-04-18T08:25:27.002Z,11.85
2023-04-18T08:27:54.168Z,11.75
2023-04-18T08:30:21.239Z,12.00
2023-04-18T08:32:49.206Z,11.73
2023-04-18T08:35:16.601Z,11.63
2023-04-18T08:37:43.635Z,11.68
2023-04-18T08:40:10.914Z,11.75
2023-04-18T08:42:38.764Z,11.35
2023-04-18T08:45:09.670Z,11.15
2023-04-18T08:47:36.824Z,11.55
2023-04-18T08:50:04.190Z,11.70
2023-04-18T08:52:32.626Z,10.77
2023-04-18T08:54:59.977Z,12.27
2023-04-18T08:57:27.089Z,11.18
2023-04-18T08:59:55.469Z,11.38
2023-04-18T09:02:45.229Z,11.25
2023-04-18T09:05:19.735Z,11.90
2023-04-18T09:07:49.171Z,11.90
2023-04-18T09:10:36.630Z,11.57
2023-04-18T09:13:04.470Z,10.40
2023-04-18T09:15:32.014Z,10.15
2023-04-18T09:18:03.100Z,11.65
2023-04-18T09:20:35.774Z,12.45
2023-04-18T09:23:05.004Z,12.05
2023-04-18T09:25:36.270Z,12.40
2023-04-18T09:28:05.790Z,11.02
2023-04-18T09:30:38.355Z,11.15
2023-04-18T09:33:10.291Z,11.73
2023-04-18T09:35:38.339Z,10.90
2023-04-18T09:38:07.688Z,10.60
2023-04-18T09:40:34.972Z,10.57
2023-04-18T09:43:19.747Z,10.63
2023-04-18T09:45:51.346Z,10.85
2023-04-18T09:48:18.576Z,11.27
2023-04-18T09:50:47.633Z,11.85
2023-04-18T09:53:20.633Z,12.18
2023-04-18T09:55:54.806Z,14.20
2023-04-18T09:58:25.420Z,13.30
2023-04-18T10:00:54.499Z,13.30
2023-04-18T10:03:27.525Z,13.73
2023-04-18T10:05:57.788Z,13.77
2023-04-18T10:08:26.404Z,13.65
2023-04-18T10:10:56.040Z,14.02
2023-04-18T10:13:24.806Z,14.85
2023-04-18T10:15:52.587Z,14.10
2023-04-18T10:18:24.625Z,14.15
2023-04-18T10:21:01.995Z,13.30
2023-04-18T10:23:37.942Z,12.25
2023-04-18T10:26:09.330Z,12.85
2023-04-18T10:28:53.518Z,12.32
2023-04-18T10:31:23.405Z,12.57
2023-04-18T10:34:18.557Z,12.80
2023-04-18T10:37:05.281Z,13.05
2023-04-18T10:39:48.428Z,13.18
2023-04-18T10:42:15.554Z,11.80
2023-04-18T10:44:42.819Z,12.35
2023-04-18T10:47:09.777Z,11.80
2023-04-18T10:49:37.107Z,12.07
2023-04-18T10:52:06.175Z,13.23
2023-04-18T10:54:44.047Z,13.70
2023-04-18T10:57:12.147Z,12.57
2023-04-18T10:59:42.508Z,12.93
2023-04-18T11:02:27.251Z,13.25
2023-04-18T11:04:58.621Z,13.13
2023-04-18T11:07:41.971Z,12.93
2023-04-18T11:10:09.952Z,12.88
2023-04-18T11:12:39.618Z,13.75
2023-04-18T11:15:17.797Z,13.07
2023-04-18T11:17:45.328Z,15.02
2023-04-18T11:20:16.957Z,13.45
2023-04-18T11:22:55.132Z,13.50
2023-04-18T11:25:35.106Z,13.27
2023-04-18T11:28:03.991Z,13.63
2023-04-18T11:30:39.431Z,12.45
2023-04-18T11:33:14.381Z,12.50
2023-04-18T11:35:48.746Z,12.93
2023-04-18T11:38:16.525Z,12.60
2023-04-18T11:40:50.646Z,12.45
2023-04-18T11:43:23.560Z,12.63
2023-04-18T11:45:55.797Z,13.70
2023-04-18T11:48:23.440Z,13.05
2023-04-18T11:50:51.035Z,13.95
2023-04-18T11:53:37.743Z,13.27
2023-04-18T11:56:05.729Z,12.02
2023-04-18T11:58:37.119Z,12.43
2023-04-18T12:01:20.366Z,13.18
2023-04-18T12:04:21.109Z,13.23
2023-04-18T12:06:54.301Z,12.90
2023-04-18T12:09:24.512Z,13.10
2023-04-18T12:12:03.063Z,12.43
2023-04-18T12:14:31.434Z,13.63
2023-04-18T12:16:58.469Z,13.63
2023-04-18T12:19:28.205Z,13.13
2023-04-18T12:22:06.822Z,12.68
2023-04-18T12:24:39.925Z,12.48
2023-04-18T12:27:07.325Z,12.88
2023-04-18T12:29:34.256Z,12.63
2023-04-18T12:32:01.181Z,13.40
2023-04-18T12:34:28.733Z,14.32
2023-04-18T12:36:55.820Z,13.63
2023-04-18T12:39:23.016Z,13.48
2023-04-18T12:41:51.941Z,13.60
2023-04-18T12:44:19.124Z,13.98
2023-04-18T12:46:46.284Z,13.55
2023-04-18T12:49:13.247Z,12.18
2023-04-18T12:51:40.741Z,12.48
2023-04-18T12:54:07.763Z,13.05
2023-04-18T12:56:35.024Z,14.10
2023-04-18T12:59:02.012Z,12.73
2023-04-18T13:01:29.104Z,13.30
2023-04-18T13:04:08.379Z,12.90
2023-04-18T13:06:38.509Z,11.95
2023-04-18T13:09:05.589Z,12.57
2023-04-18T13:11:35.566Z,14.27
2023-04-18T13:14:02.625Z,12.45
2023-04-18T13:16:29.745Z,12.48
2023-04-18T13:18:56.810Z,11.98
2023-04-18T13:21:25.256Z,12.18
2023-04-18T13:23:52.262Z,12.23
2023-04-18T13:26:19.172Z,12.13
2023-04-18T13:28:46.041Z,11.60
2023-04-18T13:31:14.093Z,13.02
2023-04-18T13:33:42.207Z,12.02
2023-04-18T13:36:09.359Z,13.32
2023-04-18T13:38:36.846Z,11.52
2023-04-18T13:41:12.201Z,12.20
2023-04-18T13:43:48.444Z,11.23
2023-04-18T13:46:15.666Z,11.73
2023-04-18T13:48:42.655Z,11.98
2023-04-18T13:51:09.672Z,12.15
2023-04-18T13:53:36.932Z,11.38
2023-04-18T13:56:04.043Z,12.07
2023-04-18T13:58:31.124Z,12.13
2023-04-18T14:00:58.162Z,12.20
2023-04-18T14:03:25.427Z,12.43
2023-04-18T14:05:52.467Z,12.43
2023-04-18T14:08:19.465Z,10.88
2023-04-18T14:10:46.531Z,11.32
2023-04-18T14:13:13.544Z,11.27
2023-04-18T14:15:40.725Z,11.60
2023-04-18T14:18:07.690Z,10.52
2023-04-18T14:20:48.802Z,10.82
2023-04-18T14:23:34.346Z,11.70
2023-04-18T14:26:08.033Z,11.13
2023-04-18T14:28:35.163Z,11.52
2023-04-18T14:31:03.072Z,10.93
2023-04-18T14:33:30.195Z,11.57
2023-04-18T14:35:57.475Z,11.15
2023-04-18T14:38:24.760Z,11.13
2023-04-18T14:40:51.695Z,11.45
2023-04-18T14:43:18.739Z,10.18
2023-04-18T14:45:45.651Z,11.10
2023-04-18T14:48:12.662Z,11.05
2023-04-18T14:50:39.815Z,10.65
2023-04-18T14:53:07.761Z,10.82
2023-04-18T14:55:34.943Z,11.40
2023-04-18T14:58:02.024Z,10.85
2023-04-18T15:00:32.455Z,11.50
2023-04-18T15:02:59.573Z,11.52
2023-04-18T15:05:30.697Z,11.65
2023-04-18T15:07:58.204Z,10.23
2023-04-18T15:10:25.298Z,11.20
2023-04-18T15:12:52.718Z,10.98
2023-04-18T15:15:19.990Z,11.52
2023-04-18T15:17:47.118Z,10.68
2023-04-18T15:20:14.137Z,10.10
2023-04-18T15:22:41.118Z,10.02
2023-04-18T15:25:08.503Z,9.82
2023-04-18T15:27:35.609Z,10.90
2023-04-18T15:30:03.048Z,10.32
2023-04-18T15:32:33.003Z,9.38
2023-04-18T15:35:00.634Z,9.90
2023-04-18T15:37:27.953Z,10.05
2023-04-18T15:39:54.919Z,9.95
2023-04-18T15:42:21.794Z,9.73
2023-04-18T15:44:49.704Z,9.50
2023-04-18T15:47:17.182Z,9.43
2023-04-18T15:49:44.263Z,9.00
2023-04-18T15:52:11.674Z,9.25
2023-04-18T15:54:41.744Z,8.68
2023-04-18T15:57:09.955Z,9.73
2023-04-18T15:59:37.370Z,8.70
2023-04-18T16:02:06.631Z,8.90
2023-04-18T16:04:33.965Z,9.00
2023-04-18T16:07:05.037Z,9.45
2023-04-18T16:09:32.216Z,9.15
2023-04-18T16:11:59.427Z,9.30
2023-04-18T16:14:26.554Z,8.98
2023-04-18T16:16:55.085Z,9.60
2023-04-18T16:19:22.188Z,9.45
2023-04-18T16:21:49.594Z,8.68
2023-04-18T16:24:16.683Z,8.68
2023-04-18T16:26:43.768Z,9.13
2023-04-18T16:29:10.754Z,8.40
2023-04-18T16:31:38.185Z,8.60
2023-04-18T16:34:05.494Z,8.23
2023-04-18T16:36:35.728Z,8.60
2023-04-18T16:39:02.995Z,8.75
2023-04-18T16:41:30.040Z,8.70
2023-04-18T16:43:58.360Z,8.10
2023-04-18T16:46:25.625Z,7.90
2023-04-18T16:48:52.795Z,8.43
2023-04-18T16:51:19.895Z,8.30
2023-04-18T16:53:46.953Z,8.25
2023-04-18T16:56:13.900Z,9.15
2023-04-18T16:58:41.240Z,8.45
2023-04-18T17:01:08.361Z,8.50
2023-04-18T17:03:36.771Z,8.50
2023-04-18T17:06:04.645Z,8.80
2023-04-18T17:08:33.114Z,9.38
2023-04-18T17:11:02.135Z,8.25
2023-04-18T17:13:31.663Z,8.00
2023-04-18T17:15:58.976Z,8.07
2023-04-18T17:18:26.066Z,8.38
2023-04-18T17:20:53.094Z,8.88
2023-04-18T17:23:20.382Z,8.30
2023-04-18T17:25:47.758Z,8.55
2023-04-18T17:28:15.122Z,7.45
2023-04-18T17:30:42.359Z,7.22
2023-04-18T17:33:09.869Z,6.50
2023-04-18T17:35:37.219Z,7.00
2023-04-18T17:38:04.197Z,7.15
2023-04-18T17:40:31.256Z,7.03
2023-04-18T17:42:58.385Z,6.85
2023-04-18T17:45:25.652Z,6.80
2023-04-18T17:47:52.748Z,6.95
2023-04-18T17:50:19.938Z,7.65
2023-04-18T17:52:46.913Z,7.97
2023-04-18T17:55:14.119Z,8.13
2023-04-18T17:57:41.716Z,7.28
2023-04-18T18:00:11.882Z,7.28
2023-04-18T18:02:45.067Z,7.22
2023-04-18T18:05:14.899Z,8.13
2023-04-18T18:07:47.354Z,7.18
2023-04-18T18:10:23.308Z,7.72
2023-04-18T18:12:50.647Z,7.85
2023-04-18T18:15:18.380Z,8.18
2023-04-18T18:17:47.624Z,7.57
2023-04-18T18:20:14.755Z,7.75
2023-04-18T18:22:42.118Z,7.60
2023-04-18T18:25:09.638Z,8.73
2023-04-18T18:27:36.816Z,8.30
2023-04-18T18:30:09.642Z,7.80
2023-04-18T18:32:37.286Z,7.60
2023-04-18T18:35:06.097Z,7.60
2023-04-18T18:37:33.543Z,7.05
2023-04-18T18:40:00.603Z,7.32
2023-04-18T18:42:28.726Z,7.32
2023-04-18T18:44:55.859Z,6.90
2023-04-18T18:47:23.102Z,6.97
2023-04-18T18:49:50.168Z,6.93
2023-04-18T18:52:17.200Z,6.55
2023-04-18T18:54:44.247Z,6.88
2023-04-18T18:57:11.255Z,7.15
2023-04-18T18:59:38.366Z,6.90
2023-04-18T19:02:06.127Z,6.95
2023-04-18T19:04:36.294Z,5.85
2023-04-18T19:07:04.978Z,6.55
2023-04-18T19:09:32.041Z,6.35
2023-04-18T19:11:59.059Z,6.95
2023-04-18T19:14:26.031Z,6.38
2023-04-18T19:16:53.313Z,6.57
2023-04-18T19:19:20.252Z,6.68
2023-04-18T19:21:47.413Z,7.25
2023-04-18T19:24:14.936Z,6.88
2023-04-18T19:26:42.553Z,6.30
2023-04-18T19:29:10.964Z,13.35
2023-04-18T19:31:38.122Z,6.30
2023-04-18T19:34:05.166Z,6.70
2023-04-18T19:36:32.242Z,6.15
2023-04-18T19:38:59.171Z,5.93
2023-04-18T19:41:26.378Z,6.53
2023-04-18T19:43:53.751Z,5.63
2023-04-18T19:46:20.787Z,5.72
2023-04-18T19:48:48.067Z,6.18
2023-04-18T19:51:15.106Z,5.95
2023-04-18T19:53:42.123Z,6.28
2023-04-18T19:56:11.227Z,5.82
2023-04-18T19:58:44.928Z,5.45
2023-04-18T20:01:17.471Z,5.60
2023-04-18T20:03:44.952Z,6.50
2023-04-18T20:06:12.887Z,6.30
2023-04-18T20:08:45.815Z,5.88
2023-04-18T20:11:16.742Z,6.90
2023-04-18T20:13:43.691Z,5.47
2023-04-18T20:16:12.294Z,5.53
2023-04-18T20:18:41.717Z,5.63
2023-04-18T20:21:10.888Z,5.40
2023-04-18T20:23:38.265Z,6.55
2023-04-18T20:26:05.306Z,6.55
2023-04-18T20:28:32.301Z,5.80
2023-04-18T20:30:59.297Z,6.05
2023-04-18T20:33:26.358Z,6.53
2023-04-18T20:35:54.802Z,6.25
2023-04-18T20:38:26.214Z,6.35
2023-04-18T20:40:54.428Z,6.15
2023-04-18T20:43:23.269Z,5.82
2023-04-18T20:45:58.775Z,6.13
2023-04-18T20:48:25.987Z,6.20
2023-04-18T20:50:53.086Z,6.10
2023-04-18T20:53:21.354Z,6.30
2023-04-18T20:55:52.201Z,6.63
2023-04-18T20:58:19.332Z,6.82
2023-04-18T21:00:46.476Z,6.78
2023-04-18T21:03:14.173Z,6.93
2023-04-18T21:05:41.912Z,6.82
2023-04-18T21:08:08.977Z,6.57
2023-04-18T21:10:35.909Z,6.18
2023-04-18T21:13:03.508Z,6.65
2023-04-18T21:15:30.498Z,6.40
2023-04-18T21:17:57.698Z,6.45
2023-04-18T21:20:24.978Z,6.70
2023-04-18T21:22:51.882Z,6.65
2023-04-18T21:25:21.316Z,6.57
2023-04-18T21:27:50.690Z,7.35
2023-04-18T21:30:17.982Z,6.97
2023-04-18T21:32:47.308Z,7.72
2023-04-18T21:35:16.074Z,7.28
2023-04-18T21:37:44.203Z,7.57
2023-04-18T21:40:11.369Z,7.30
2023-04-18T21:42:38.588Z,7.50
2023-04-18T21:45:06.603Z,7.20
2023-04-18T21:47:33.882Z,7.47
2023-04-18T21:50:00.905Z,6.32
2023-04-18T21:52:30.692Z,6.70
2023-04-18T21:54:59.293Z,7.30
2023-04-18T21:57:26.413Z,6.80
2023-04-18T21:59:55.181Z,7.07
2023-04-18T22:02:22.354Z,6.63
2023-04-18T22:04:49.423Z,6.97
2023-04-18T22:07:18.693Z,7.38
2023-04-18T22:09:46.554Z,6.90
2023-04-18T22:12:16.384Z,6.47
2023-04-18T22:14:48.244Z,6.80
2023-04-18T22:17:16.586Z,7.22
2023-04-18T22:19:44.718Z,6.75
2023-04-18T22:22:12.316Z,7.13
2023-04-18T22:24:39.607Z,7.07
2023-04-18T22:27:07.028Z,6.55
2023-04-18T22:29:34.557Z,6.45
2023-04-18T22:32:01.675Z,7.38
2023-04-18T22:34:29.236Z,6.85
2023-04-18T22:36:56.324Z,6.80
2023-04-18T22:39:24.676Z,7.22
2023-04-18T22:41:51.627Z,6.95
2023-04-18T22:44:18.916Z,6.32
2023-04-18T22:46:47.561Z,6.32
2023-04-18T22:49:14.764Z,6.28
2023-04-18T22:51:42.378Z,6.20
2023-04-18T22:54:09.559Z,5.95
2023-04-18T22:56:36.701Z,6.43
2023-04-18T22:59:03.828Z,6.45
2023-04-18T23:01:34.094Z,6.47
2023-04-18T23:04:01.629Z,6.53
2023-04-18T23:06:31.031Z,5.90
2023-04-18T23:08:58.903Z,6.30
2023-04-18T23:11:26.483Z,6.60
2023-04-18T23:13:53.477Z,7.07
2023-04-18T23:16:22.179Z,6.72
2023-04-18T23:18:49.520Z,6.00
2023-04-18T23:21:17.552Z,6.00
2023-04-18T23:23:44.656Z,6.18
2023-04-18T23:26:14.470Z,6.00
2023-04-18T23:28:42.473Z,6.47
2023-04-18T23:31:10.078Z,5.93
2023-04-18T23:33:37.584Z,6.07
2023-04-18T23:36:04.887Z,6.28
2023-04-18T23:38:31.982Z,6.45
2023-04-18T23:40:58.987Z,6.38
2023-04-18T23:43:26.017Z,5.55
2023-04-18T23:45:53.057Z,5.80
2023-04-18T23:48:20.233Z,6.25
2023-04-18T23:50:48.963Z,7.03
2023-04-18T23:53:20.152Z,6.22
2023-04-18T23:55:50.105Z,6.32
2023-04-18T23:58:17.882Z,6.10
